Alabat, Philippines
Current Conditions -  °F | °C
As of 3:00 PM on Friday 24 Oct 2014 (Local Time) from RPLL Reporting Station
Broken Clouds Broken Clouds  
Wind Chill: 86°   Ceiling: 9000
Heat Index: 95°   Visibility: 6mi
Dew Point: 75°   Wind: 8mph
Humidity: 70%   Direction: NA
Pressure: 29.8"   Gusts: NA
Location:  14.1°N, 122.02°E
Report Text: RPLL 240700Z VRB07KT 9999 SCT025 BKN090 30/24 Q1009 NOSIG RMK A2980
Loading
Personal Weather Stations






























Interactive Weather Map
Tropical Storm Tracking
New forecast layout! Learn more

10-Day Weather Forecast

Advertisements
Track Severe Weather on mobile